Seattle, Washington
Traffic Map
Current Weather Conditions
Seattle, Washington
Clear
Clear
86°
Feels Like: 86°
Wind Chill: 86° Ceiling: Unl
Heat Index: 86° Visibility: 10mi
Dew Point: 41° Wind: 5mph
Humidity: 20% Direction: 300° (WNW)
Pressure: 29.78in Gusts: 0mph
Raw Report DataKBFI 152353Z 30004KT 10SM CLR 30/05 A2978 RMK AO2 SLP083 T03000050 10306 20217 56015
Traffic Incident Summary
Active as of:
Severity:
Category:
InformationThere was an issue retrieving the traffic information for this location. Please try a different location or try again shortly.
Advertisements
Track Severe Weather on mobile